sensor_id;sensor_type;location;lat;lon;timestamp;P1;durP1;ratioP1;P2;durP2;ratioP2
20340;SDS011;10328;50.042;8.238;2022-08-11T00:01:09;5.85;;;3.50;;
20340;SDS011;10328;50.042;8.238;2022-08-11T00:03:46;3.70;;;3.35;;
20340;SDS011;10328;50.042;8.238;2022-08-11T00:06:22;5.13;;;3.55;;
20340;SDS011;10328;50.042;8.238;2022-08-11T00:09:04;5.18;;;3.53;;
20340;SDS011;10328;50.042;8.238;2022-08-11T00:11:38;3.78;;;3.35;;
20340;SDS011;10328;50.042;8.238;2022-08-11T00:14:20;6.63;;;3.63;;
20340;SDS011;10328;50.042;8.238;2022-08-11T00:19:40;3.92;;;3.22;;
20340;SDS011;10328;50.042;8.238;2022-08-11T00:22:31;4.80;;;3.25;;
20340;SDS011;10328;50.042;8.238;2022-08-11T00:25:00;7.22;;;3.72;;
20340;SDS011;10328;50.042;8.238;2022-08-11T00:27:44;7.18;;;3.80;;
20340;SDS011;10328;50.042;8.238;2022-08-11T00:30:12;7.53;;;3.70;;
20340;SDS011;10328;50.042;8.238;2022-08-11T00:32:41;4.30;;;3.20;;
20340;SDS011;10328;50.042;8.238;2022-08-11T00:35:12;5.78;;;3.40;;
20340;SDS011;10328;50.042;8.238;2022-08-11T00:38:01;6.35;;;3.63;;
20340;SDS011;10328;50.042;8.238;2022-08-11T00:40:36;5.65;;;3.15;;
20340;SDS011;10328;50.042;8.238;2022-08-11T00:43:22;6.10;;;3.67;;
20340;SDS011;10328;50.042;8.238;2022-08-11T00:46:11;5.35;;;3.53;;
20340;SDS011;10328;50.042;8.238;2022-08-11T00:57:15;4.23;;;3.43;;
20340;SDS011;10328;50.042;8.238;2022-08-11T01:00:22;4.93;;;3.70;;
20340;SDS011;10328;50.042;8.238;2022-08-11T01:06:05;3.97;;;3.10;;
20340;SDS011;10328;50.042;8.238;2022-08-11T01:09:13;4.60;;;4.10;;
20340;SDS011;10328;50.042;8.238;2022-08-11T01:12:03;5.40;;;3.63;;
20340;SDS011;10328;50.042;8.238;2022-08-11T01:41:16;5.17;;;3.67;;
20340;SDS011;10328;50.042;8.238;2022-08-11T01:44:26;4.20;;;3.80;;
20340;SDS011;10328;50.042;8.238;2022-08-11T01:47:16;3.73;;;3.23;;
20340;SDS011;10328;50.042;8.238;2022-08-11T02:07:14;5.77;;;3.80;;
20340;SDS011;10328;50.042;8.238;2022-08-11T02:10:17;4.30;;;3.70;;
20340;SDS011;10328;50.042;8.238;2022-08-11T02:16:09;5.37;;;3.57;;
20340;SDS011;10328;50.042;8.238;2022-08-11T02:22:04;4.17;;;3.77;;
20340;SDS011;10328;50.042;8.238;2022-08-11T02:25:02;6.23;;;3.93;;
20340;SDS011;10328;50.042;8.238;2022-08-11T02:27:43;5.17;;;3.97;;
20340;SDS011;10328;50.042;8.238;2022-08-11T02:30:36;4.40;;;4.00;;
20340;SDS011;10328;50.042;8.238;2022-08-11T02:38:48;6.83;;;4.43;;
20340;SDS011;10328;50.042;8.238;2022-08-11T02:47:47;4.13;;;3.53;;
20340;SDS011;10328;50.042;8.238;2022-08-11T02:59:14;5.93;;;4.10;;
20340;SDS011;10328;50.042;8.238;2022-08-11T03:10:17;6.37;;;3.80;;
20340;SDS011;10328;50.042;8.238;2022-08-11T03:15:46;4.63;;;3.50;;
20340;SDS011;10328;50.042;8.238;2022-08-11T03:19:29;4.10;;;3.70;;
20340;SDS011;10328;50.042;8.238;2022-08-11T03:21:56;4.23;;;3.53;;
20340;SDS011;10328;50.042;8.238;2022-08-11T03:24:39;6.20;;;3.97;;
20340;SDS011;10328;50.042;8.238;2022-08-11T03:27:33;4.97;;;4.30;;
20340;SDS011;10328;50.042;8.238;2022-08-11T03:30:12;4.50;;;3.93;;
20340;SDS011;10328;50.042;8.238;2022-08-11T03:32:45;6.90;;;4.10;;
20340;SDS011;10328;50.042;8.238;2022-08-11T03:35:44;5.33;;;4.20;;
20340;SDS011;10328;50.042;8.238;2022-08-11T03:38:42;5.80;;;3.90;;
20340;SDS011;10328;50.042;8.238;2022-08-11T03:41:31;7.77;;;3.80;;
20340;SDS011;10328;50.042;8.238;2022-08-11T03:44:47;6.23;;;4.10;;
20340;SDS011;10328;50.042;8.238;2022-08-11T03:47:42;5.80;;;4.13;;
20340;SDS011;10328;50.042;8.238;2022-08-11T03:53:12;5.00;;;3.97;;
20340;SDS011;10328;50.042;8.238;2022-08-11T04:04:52;4.33;;;3.83;;
20340;SDS011;10328;50.042;8.238;2022-08-11T04:23:06;5.40;;;4.13;;
20340;SDS011;10328;50.042;8.238;2022-08-11T04:25:48;7.47;;;4.43;;
20340;SDS011;10328;50.042;8.238;2022-08-11T04:31:29;4.70;;;4.17;;
20340;SDS011;10328;50.042;8.238;2022-08-11T05:02:04;4.63;;;3.90;;
20340;SDS011;10328;50.042;8.238;2022-08-11T05:07:43;6.20;;;4.20;;
20340;SDS011;10328;50.042;8.238;2022-08-11T05:13:44;6.07;;;4.00;;
20340;SDS011;10328;50.042;8.238;2022-08-11T05:16:40;5.73;;;3.77;;
20340;SDS011;10328;50.042;8.238;2022-08-11T05:19:34;4.57;;;4.00;;
20340;SDS011;10328;50.042;8.238;2022-08-11T05:22:20;5.57;;;3.80;;
20340;SDS011;10328;50.042;8.238;2022-08-11T05:25:14;6.50;;;4.13;;
20340;SDS011;10328;50.042;8.238;2022-08-11T05:28:37;6.83;;;4.07;;
20340;SDS011;10328;50.042;8.238;2022-08-11T05:31:48;6.10;;;3.90;;
20340;SDS011;10328;50.042;8.238;2022-08-11T05:34:43;4.27;;;3.57;;
20340;SDS011;10328;50.042;8.238;2022-08-11T05:43:02;4.20;;;3.80;;
20340;SDS011;10328;50.042;8.238;2022-08-11T05:45:57;4.43;;;3.73;;
20340;SDS011;10328;50.042;8.238;2022-08-11T05:48:44;5.00;;;3.50;;
20340;SDS011;10328;50.042;8.238;2022-08-11T05:51:34;5.73;;;3.33;;
20340;SDS011;10328;50.042;8.238;2022-08-11T05:54:37;7.10;;;3.77;;
20340;SDS011;10328;50.042;8.238;2022-08-11T05:57:28;7.43;;;3.97;;
20340;SDS011;10328;50.042;8.238;2022-08-11T06:00:16;4.67;;;3.80;;
20340;SDS011;10328;50.042;8.238;2022-08-11T06:02:52;3.93;;;3.50;;
20340;SDS011;10328;50.042;8.238;2022-08-11T06:05:20;9.60;;;4.30;;
20340;SDS011;10328;50.042;8.238;2022-08-11T06:07:51;7.07;;;3.83;;
20340;SDS011;10328;50.042;8.238;2022-08-11T06:10:29;7.73;;;3.60;;
20340;SDS011;10328;50.042;8.238;2022-08-11T06:12:58;8.10;;;3.90;;
20340;SDS011;10328;50.042;8.238;2022-08-11T06:15:26;4.70;;;3.67;;
20340;SDS011;10328;50.042;8.238;2022-08-11T06:17:55;6.70;;;3.70;;
20340;SDS011;10328;50.042;8.238;2022-08-11T06:20:23;8.53;;;3.80;;
20340;SDS011;10328;50.042;8.238;2022-08-11T06:22:54;4.43;;;3.30;;
20340;SDS011;10328;50.042;8.238;2022-08-11T06:25:33;8.45;;;4.50;;
20340;SDS011;10328;50.042;8.238;2022-08-11T06:28:04;6.88;;;3.40;;
20340;SDS011;10328;50.042;8.238;2022-08-11T06:30:37;6.20;;;3.50;;
20340;SDS011;10328;50.042;8.238;2022-08-11T06:33:07;9.07;;;3.63;;
20340;SDS011;10328;50.042;8.238;2022-08-11T06:41:19;6.07;;;3.80;;
20340;SDS011;10328;50.042;8.238;2022-08-11T06:44:04;6.47;;;3.65;;
20340;SDS011;10328;50.042;8.238;2022-08-11T06:46:39;10.18;;;3.40;;
20340;SDS011;10328;50.042;8.238;2022-08-11T06:49:08;18.33;;;3.78;;
20340;SDS011;10328;50.042;8.238;2022-08-11T06:51:55;10.48;;;3.47;;
20340;SDS011;10328;50.042;8.238;2022-08-11T06:54:31;4.13;;;3.10;;
20340;SDS011;10328;50.042;8.238;2022-08-11T06:57:00;4.45;;;3.20;;
20340;SDS011;10328;50.042;8.238;2022-08-11T06:59:55;5.85;;;3.03;;
20340;SDS011;10328;50.042;8.238;2022-08-11T07:02:52;5.05;;;3.13;;
20340;SDS011;10328;50.042;8.238;2022-08-11T07:14:30;7.60;;;3.20;;
20340;SDS011;10328;50.042;8.238;2022-08-11T07:17:18;7.07;;;3.30;;
20340;SDS011;10328;50.042;8.238;2022-08-11T07:19:52;7.72;;;2.92;;
20340;SDS011;10328;50.042;8.238;2022-08-11T07:22:45;6.13;;;3.03;;
20340;SDS011;10328;50.042;8.238;2022-08-11T07:25:38;5.80;;;2.90;;
20340;SDS011;10328;50.042;8.238;2022-08-11T07:28:28;6.88;;;3.08;;
20340;SDS011;10328;50.042;8.238;2022-08-11T07:31:20;5.85;;;3.30;;
20340;SDS011;10328;50.042;8.238;2022-08-11T07:33:50;8.38;;;2.95;;
20340;SDS011;10328;50.042;8.238;2022-08-11T07:36:39;4.30;;;3.03;;
20340;SDS011;10328;50.042;8.238;2022-08-11T07:39:13;8.15;;;3.20;;
20340;SDS011;10328;50.042;8.238;2022-08-11T07:41:44;8.88;;;3.00;;
20340;SDS011;10328;50.042;8.238;2022-08-11T07:44:12;9.85;;;3.15;;
20340;SDS011;10328;50.042;8.238;2022-08-11T07:46:43;8.05;;;3.20;;
20340;SDS011;10328;50.042;8.238;2022-08-11T07:49:31;5.00;;;3.33;;
20340;SDS011;10328;50.042;8.238;2022-08-11T07:52:20;6.65;;;3.33;;
20340;SDS011;10328;50.042;8.238;2022-08-11T07:55:04;8.85;;;3.50;;
20340;SDS011;10328;50.042;8.238;2022-08-11T07:57:33;5.65;;;3.20;;
20340;SDS011;10328;50.042;8.238;2022-08-11T08:00:41;8.38;;;3.72;;
20340;SDS011;10328;50.042;8.238;2022-08-11T08:03:36;6.43;;;3.08;;
20340;SDS011;10328;50.042;8.238;2022-08-11T08:06:22;7.20;;;3.35;;
20340;SDS011;10328;50.042;8.238;2022-08-11T08:09:09;3.22;;;2.90;;
20340;SDS011;10328;50.042;8.238;2022-08-11T08:11:59;5.85;;;3.28;;
20340;SDS011;10328;50.042;8.238;2022-08-11T08:14:45;7.30;;;3.10;;
20340;SDS011;10328;50.042;8.238;2022-08-11T08:17:31;5.80;;;3.00;;
20340;SDS011;10328;50.042;8.238;2022-08-11T08:20:44;4.32;;;2.97;;
20340;SDS011;10328;50.042;8.238;2022-08-11T08:23:12;8.30;;;3.05;;
20340;SDS011;10328;50.042;8.238;2022-08-11T08:25:40;4.25;;;3.00;;
20340;SDS011;10328;50.042;8.238;2022-08-11T08:28:10;4.40;;;2.92;;
20340;SDS011;10328;50.042;8.238;2022-08-11T08:30:40;7.75;;;3.20;;
20340;SDS011;10328;50.042;8.238;2022-08-11T08:33:23;4.28;;;3.08;;
20340;SDS011;10328;50.042;8.238;2022-08-11T08:35:53;7.88;;;3.20;;
20340;SDS011;10328;50.042;8.238;2022-08-11T08:38:41;6.47;;;3.30;;
20340;SDS011;10328;50.042;8.238;2022-08-11T08:41:09;5.63;;;3.08;;
20340;SDS011;10328;50.042;8.238;2022-08-11T08:43:41;6.30;;;3.00;;
20340;SDS011;10328;50.042;8.238;2022-08-11T08:46:14;7.13;;;3.53;;
20340;SDS011;10328;50.042;8.238;2022-08-11T08:48:46;5.60;;;3.08;;
20340;SDS011;10328;50.042;8.238;2022-08-11T08:51:14;6.93;;;3.10;;
20340;SDS011;10328;50.042;8.238;2022-08-11T08:54:22;5.18;;;3.22;;
20340;SDS011;10328;50.042;8.238;2022-08-11T08:56:55;3.80;;;3.00;;
20340;SDS011;10328;50.042;8.238;2022-08-11T08:59:23;6.43;;;3.40;;
20340;SDS011;10328;50.042;8.238;2022-08-11T09:02:12;7.30;;;2.83;;
20340;SDS011;10328;50.042;8.238;2022-08-11T09:04:39;5.28;;;3.33;;
20340;SDS011;10328;50.042;8.238;2022-08-11T09:07:09;5.57;;;3.33;;
20340;SDS011;10328;50.042;8.238;2022-08-11T09:09:49;8.52;;;3.35;;
20340;SDS011;10328;50.042;8.238;2022-08-11T09:12:17;9.93;;;3.28;;
20340;SDS011;10328;50.042;8.238;2022-08-11T09:15:06;6.40;;;3.00;;
20340;SDS011;10328;50.042;8.238;2022-08-11T09:17:45;4.60;;;3.10;;
20340;SDS011;10328;50.042;8.238;2022-08-11T09:22:55;11.93;;;3.13;;
20340;SDS011;10328;50.042;8.238;2022-08-11T09:26:02;7.10;;;3.20;;
20340;SDS011;10328;50.042;8.238;2022-08-11T09:28:56;3.88;;;3.17;;
20340;SDS011;10328;50.042;8.238;2022-08-11T09:31:24;5.43;;;3.00;;
20340;SDS011;10328;50.042;8.238;2022-08-11T09:33:53;5.68;;;3.58;;
20340;SDS011;10328;50.042;8.238;2022-08-11T09:36:20;6.35;;;3.20;;
20340;SDS011;10328;50.042;8.238;2022-08-11T09:39:06;7.97;;;3.10;;
20340;SDS011;10328;50.042;8.238;2022-08-11T09:41:53;8.77;;;2.90;;
20340;SDS011;10328;50.042;8.238;2022-08-11T09:44:40;4.20;;;3.10;;
20340;SDS011;10328;50.042;8.238;2022-08-11T09:49:46;3.10;;;2.80;;
20340;SDS011;10328;50.042;8.238;2022-08-11T09:52:14;9.23;;;3.20;;
20340;SDS011;10328;50.042;8.238;2022-08-11T09:54:43;10.65;;;3.75;;
20340;SDS011;10328;50.042;8.238;2022-08-11T09:57:13;7.55;;;2.90;;
20340;SDS011;10328;50.042;8.238;2022-08-11T10:00:03;4.47;;;3.42;;
20340;SDS011;10328;50.042;8.238;2022-08-11T10:02:40;7.90;;;3.10;;
20340;SDS011;10328;50.042;8.238;2022-08-11T10:05:09;6.63;;;3.78;;
20340;SDS011;10328;50.042;8.238;2022-08-11T10:07:58;4.72;;;3.40;;
20340;SDS011;10328;50.042;8.238;2022-08-11T10:10:26;8.68;;;3.17;;
20340;SDS011;10328;50.042;8.238;2022-08-11T10:12:58;4.57;;;3.08;;
20340;SDS011;10328;50.042;8.238;2022-08-11T10:15:52;6.28;;;3.05;;
20340;SDS011;10328;50.042;8.238;2022-08-11T10:18:41;7.40;;;3.60;;
20340;SDS011;10328;50.042;8.238;2022-08-11T10:24:08;5.13;;;2.60;;
20340;SDS011;10328;50.042;8.238;2022-08-11T10:26:55;7.70;;;2.70;;
20340;SDS011;10328;50.042;8.238;2022-08-11T10:29:29;8.90;;;3.10;;
20340;SDS011;10328;50.042;8.238;2022-08-11T10:32:22;8.13;;;2.88;;
20340;SDS011;10328;50.042;8.238;2022-08-11T10:35:25;5.78;;;2.85;;
20340;SDS011;10328;50.042;8.238;2022-08-11T10:37:53;4.65;;;2.72;;
20340;SDS011;10328;50.042;8.238;2022-08-11T10:40:35;4.10;;;3.03;;
20340;SDS011;10328;50.042;8.238;2022-08-11T10:43:05;4.63;;;3.05;;
20340;SDS011;10328;50.042;8.238;2022-08-11T10:45:39;4.75;;;2.92;;
20340;SDS011;10328;50.042;8.238;2022-08-11T10:48:29;6.97;;;2.85;;
20340;SDS011;10328;50.042;8.238;2022-08-11T10:51:01;5.40;;;2.67;;
20340;SDS011;10328;50.042;8.238;2022-08-11T10:53:40;4.53;;;3.08;;
20340;SDS011;10328;50.042;8.238;2022-08-11T10:56:28;4.50;;;3.38;;
20340;SDS011;10328;50.042;8.238;2022-08-11T10:59:17;5.22;;;2.70;;
20340;SDS011;10328;50.042;8.238;2022-08-11T11:01:44;3.03;;;2.53;;
20340;SDS011;10328;50.042;8.238;2022-08-11T11:04:12;3.22;;;2.78;;
20340;SDS011;10328;50.042;8.238;2022-08-11T11:06:48;3.58;;;2.90;;
20340;SDS011;10328;50.042;8.238;2022-08-11T11:09:27;4.53;;;2.67;;
20340;SDS011;10328;50.042;8.238;2022-08-11T11:12:26;6.00;;;3.33;;
20340;SDS011;10328;50.042;8.238;2022-08-11T11:15:19;3.22;;;2.92;;
20340;SDS011;10328;50.042;8.238;2022-08-11T11:18:10;3.65;;;2.83;;
20340;SDS011;10328;50.042;8.238;2022-08-11T11:20:42;6.03;;;2.70;;
20340;SDS011;10328;50.042;8.238;2022-08-11T11:23:20;6.43;;;2.92;;
20340;SDS011;10328;50.042;8.238;2022-08-11T11:26:05;3.88;;;2.80;;
20340;SDS011;10328;50.042;8.238;2022-08-11T11:37:18;3.67;;;2.83;;
20340;SDS011;10328;50.042;8.238;2022-08-11T11:39:45;3.40;;;2.50;;
20340;SDS011;10328;50.042;8.238;2022-08-11T11:42:12;5.10;;;2.80;;
20340;SDS011;10328;50.042;8.238;2022-08-11T11:44:42;3.08;;;2.67;;
20340;SDS011;10328;50.042;8.238;2022-08-11T11:47:13;3.90;;;2.83;;
20340;SDS011;10328;50.042;8.238;2022-08-11T11:49:41;2.78;;;2.58;;
20340;SDS011;10328;50.042;8.238;2022-08-11T11:52:13;3.20;;;2.70;;
20340;SDS011;10328;50.042;8.238;2022-08-11T11:54:47;3.88;;;2.60;;
20340;SDS011;10328;50.042;8.238;2022-08-11T11:57:20;4.68;;;2.83;;
20340;SDS011;10328;50.042;8.238;2022-08-11T12:00:24;7.28;;;2.80;;
20340;SDS011;10328;50.042;8.238;2022-08-11T12:03:09;6.32;;;2.70;;
20340;SDS011;10328;50.042;8.238;2022-08-11T12:05:37;6.15;;;2.67;;
20340;SDS011;10328;50.042;8.238;2022-08-11T12:08:05;5.45;;;3.03;;
20340;SDS011;10328;50.042;8.238;2022-08-11T12:10:45;5.65;;;2.83;;
20340;SDS011;10328;50.042;8.238;2022-08-11T12:13:41;5.53;;;3.35;;
20340;SDS011;10328;50.042;8.238;2022-08-11T12:16:13;3.35;;;2.80;;
20340;SDS011;10328;50.042;8.238;2022-08-11T12:19:00;4.95;;;3.00;;
20340;SDS011;10328;50.042;8.238;2022-08-11T12:21:30;4.20;;;2.92;;
20340;SDS011;10328;50.042;8.238;2022-08-11T12:23:59;5.03;;;2.67;;
20340;SDS011;10328;50.042;8.238;2022-08-11T12:26:45;5.13;;;3.05;;
20340;SDS011;10328;50.042;8.238;2022-08-11T12:29:33;2.90;;;2.60;;
20340;SDS011;10328;50.042;8.238;2022-08-11T12:32:00;7.13;;;3.00;;
20340;SDS011;10328;50.042;8.238;2022-08-11T12:34:32;4.68;;;3.10;;
20340;SDS011;10328;50.042;8.238;2022-08-11T12:37:00;4.15;;;3.00;;
20340;SDS011;10328;50.042;8.238;2022-08-11T12:39:32;9.38;;;3.10;;
20340;SDS011;10328;50.042;8.238;2022-08-11T12:42:40;4.70;;;2.75;;
20340;SDS011;10328;50.042;8.238;2022-08-11T12:45:33;3.35;;;2.95;;
20340;SDS011;10328;50.042;8.238;2022-08-11T12:48:14;3.78;;;2.92;;
20340;SDS011;10328;50.042;8.238;2022-08-11T12:51:22;6.40;;;2.92;;
20340;SDS011;10328;50.042;8.238;2022-08-11T12:57:09;3.78;;;2.95;;
20340;SDS011;10328;50.042;8.238;2022-08-11T13:00:04;5.43;;;2.70;;
20340;SDS011;10328;50.042;8.238;2022-08-11T13:02:50;4.10;;;3.10;;
20340;SDS011;10328;50.042;8.238;2022-08-11T13:05:36;5.38;;;3.17;;
20340;SDS011;10328;50.042;8.238;2022-08-11T13:08:10;3.20;;;2.90;;
20340;SDS011;10328;50.042;8.238;2022-08-11T13:10:40;3.88;;;3.10;;
20340;SDS011;10328;50.042;8.238;2022-08-11T13:13:26;4.35;;;3.22;;
20340;SDS011;10328;50.042;8.238;2022-08-11T13:16:14;6.05;;;3.25;;
20340;SDS011;10328;50.042;8.238;2022-08-11T13:18:42;6.00;;;2.90;;
20340;SDS011;10328;50.042;8.238;2022-08-11T13:21:09;6.82;;;3.17;;
20340;SDS011;10328;50.042;8.238;2022-08-11T13:23:45;4.55;;;3.13;;
20340;SDS011;10328;50.042;8.238;2022-08-11T13:26:34;5.40;;;3.05;;
20340;SDS011;10328;50.042;8.238;2022-08-11T13:29:13;5.15;;;3.20;;
20340;SDS011;10328;50.042;8.238;2022-08-11T13:31:48;4.22;;;3.10;;
20340;SDS011;10328;50.042;8.238;2022-08-11T13:34:16;3.97;;;3.22;;
20340;SDS011;10328;50.042;8.238;2022-08-11T13:36:45;3.50;;;3.10;;
20340;SDS011;10328;50.042;8.238;2022-08-11T13:39:17;4.50;;;3.25;;
20340;SDS011;10328;50.042;8.238;2022-08-11T13:41:49;4.80;;;3.20;;
20340;SDS011;10328;50.042;8.238;2022-08-11T13:44:16;3.45;;;3.10;;
20340;SDS011;10328;50.042;8.238;2022-08-11T13:46:50;6.15;;;2.90;;
20340;SDS011;10328;50.042;8.238;2022-08-11T13:49:20;5.50;;;3.13;;
20340;SDS011;10328;50.042;8.238;2022-08-11T13:51:47;3.13;;;2.83;;
20340;SDS011;10328;50.042;8.238;2022-08-11T13:54:15;3.50;;;3.05;;
20340;SDS011;10328;50.042;8.238;2022-08-11T13:56:59;7.70;;;3.15;;
20340;SDS011;10328;50.042;8.238;2022-08-11T13:59:38;4.90;;;3.28;;
20340;SDS011;10328;50.042;8.238;2022-08-11T14:02:18;3.83;;;3.42;;
20340;SDS011;10328;50.042;8.238;2022-08-11T14:07:36;6.47;;;3.40;;
20340;SDS011;10328;50.042;8.238;2022-08-11T14:10:06;5.00;;;3.40;;
20340;SDS011;10328;50.042;8.238;2022-08-11T14:12:36;6.00;;;3.47;;
20340;SDS011;10328;50.042;8.238;2022-08-11T14:15:28;3.50;;;3.20;;
20340;SDS011;10328;50.042;8.238;2022-08-11T14:20:36;5.03;;;3.40;;
20340;SDS011;10328;50.042;8.238;2022-08-11T14:23:34;6.38;;;3.40;;
20340;SDS011;10328;50.042;8.238;2022-08-11T14:26:05;4.63;;;3.72;;
20340;SDS011;10328;50.042;8.238;2022-08-11T14:28:56;5.85;;;3.33;;
20340;SDS011;10328;50.042;8.238;2022-08-11T14:31:33;5.15;;;3.40;;
20340;SDS011;10328;50.042;8.238;2022-08-11T14:34:03;4.18;;;3.08;;
20340;SDS011;10328;50.042;8.238;2022-08-11T14:36:38;4.03;;;3.33;;
20340;SDS011;10328;50.042;8.238;2022-08-11T14:39:12;7.90;;;3.50;;
20340;SDS011;10328;50.042;8.238;2022-08-11T14:41:43;5.72;;;3.30;;
20340;SDS011;10328;50.042;8.238;2022-08-11T14:44:38;4.00;;;3.60;;
20340;SDS011;10328;50.042;8.238;2022-08-11T14:47:26;3.42;;;3.13;;
20340;SDS011;10328;50.042;8.238;2022-08-11T14:49:56;4.95;;;3.33;;
20340;SDS011;10328;50.042;8.238;2022-08-11T14:52:37;4.63;;;3.10;;
20340;SDS011;10328;50.042;8.238;2022-08-11T14:55:08;5.47;;;3.47;;
20340;SDS011;10328;50.042;8.238;2022-08-11T14:57:55;4.72;;;3.40;;
20340;SDS011;10328;50.042;8.238;2022-08-11T15:00:22;4.13;;;3.05;;
20340;SDS011;10328;50.042;8.238;2022-08-11T15:02:50;3.95;;;3.15;;
20340;SDS011;10328;50.042;8.238;2022-08-11T15:05:46;5.32;;;3.20;;
20340;SDS011;10328;50.042;8.238;2022-08-11T15:08:23;4.60;;;3.63;;
20340;SDS011;10328;50.042;8.238;2022-08-11T15:11:20;3.45;;;2.90;;
20340;SDS011;10328;50.042;8.238;2022-08-11T15:14:07;6.30;;;3.15;;
20340;SDS011;10328;50.042;8.238;2022-08-11T15:16:40;5.53;;;3.00;;
20340;SDS011;10328;50.042;8.238;2022-08-11T15:19:30;3.70;;;3.30;;
20340;SDS011;10328;50.042;8.238;2022-08-11T15:22:06;3.45;;;2.97;;
20340;SDS011;10328;50.042;8.238;2022-08-11T15:24:53;9.88;;;3.50;;
20340;SDS011;10328;50.042;8.238;2022-08-11T15:27:20;4.55;;;3.10;;
20340;SDS011;10328;50.042;8.238;2022-08-11T15:30:07;4.68;;;3.00;;
20340;SDS011;10328;50.042;8.238;2022-08-11T15:33:00;3.25;;;2.95;;
20340;SDS011;10328;50.042;8.238;2022-08-11T15:35:48;4.82;;;3.10;;
20340;SDS011;10328;50.042;8.238;2022-08-11T15:38:34;3.63;;;3.30;;
20340;SDS011;10328;50.042;8.238;2022-08-11T15:41:07;3.47;;;2.95;;
20340;SDS011;10328;50.042;8.238;2022-08-11T15:43:56;3.58;;;3.08;;
20340;SDS011;10328;50.042;8.238;2022-08-11T15:46:46;3.90;;;2.95;;
20340;SDS011;10328;50.042;8.238;2022-08-11T15:49:28;3.53;;;3.08;;
20340;SDS011;10328;50.042;8.238;2022-08-11T15:52:17;4.03;;;3.22;;
20340;SDS011;10328;50.042;8.238;2022-08-11T15:54:46;3.40;;;3.10;;
20340;SDS011;10328;50.042;8.238;2022-08-11T15:57:14;4.00;;;3.40;;
20340;SDS011;10328;50.042;8.238;2022-08-11T16:00:05;4.13;;;3.20;;
20340;SDS011;10328;50.042;8.238;2022-08-11T16:02:51;3.55;;;3.10;;
20340;SDS011;10328;50.042;8.238;2022-08-11T16:05:20;6.32;;;2.83;;
20340;SDS011;10328;50.042;8.238;2022-08-11T16:08:08;4.65;;;3.08;;
20340;SDS011;10328;50.042;8.238;2022-08-11T16:10:40;3.95;;;3.13;;
20340;SDS011;10328;50.042;8.238;2022-08-11T16:13:10;5.32;;;3.10;;
20340;SDS011;10328;50.042;8.238;2022-08-11T16:15:43;3.33;;;3.00;;
20340;SDS011;10328;50.042;8.238;2022-08-11T16:18:33;3.58;;;3.28;;
20340;SDS011;10328;50.042;8.238;2022-08-11T16:21:07;5.10;;;2.90;;
20340;SDS011;10328;50.042;8.238;2022-08-11T16:23:58;4.35;;;3.20;;
20340;SDS011;10328;50.042;8.238;2022-08-11T16:26:26;5.45;;;3.50;;
20340;SDS011;10328;50.042;8.238;2022-08-11T16:29:16;4.30;;;3.30;;
20340;SDS011;10328;50.042;8.238;2022-08-11T16:31:44;3.38;;;2.80;;
20340;SDS011;10328;50.042;8.238;2022-08-11T16:34:32;6.45;;;3.60;;
20340;SDS011;10328;50.042;8.238;2022-08-11T16:37:19;4.60;;;3.10;;
20340;SDS011;10328;50.042;8.238;2022-08-11T16:40:06;4.63;;;3.05;;
20340;SDS011;10328;50.042;8.238;2022-08-11T16:42:34;3.90;;;3.20;;
20340;SDS011;10328;50.042;8.238;2022-08-11T16:45:35;5.35;;;3.17;;
20340;SDS011;10328;50.042;8.238;2022-08-11T16:48:22;3.83;;;2.97;;
20340;SDS011;10328;50.042;8.238;2022-08-11T16:51:04;7.65;;;3.22;;
20340;SDS011;10328;50.042;8.238;2022-08-11T16:53:31;4.07;;;3.35;;
20340;SDS011;10328;50.042;8.238;2022-08-11T16:56:19;4.10;;;3.30;;
20340;SDS011;10328;50.042;8.238;2022-08-11T16:58:51;5.10;;;3.95;;
20340;SDS011;10328;50.042;8.238;2022-08-11T17:01:38;5.53;;;3.92;;
20340;SDS011;10328;50.042;8.238;2022-08-11T17:04:30;4.38;;;3.67;;
20340;SDS011;10328;50.042;8.238;2022-08-11T17:07:29;6.80;;;3.20;;
20340;SDS011;10328;50.042;8.238;2022-08-11T17:10:23;3.63;;;3.22;;
20340;SDS011;10328;50.042;8.238;2022-08-11T17:13:27;4.75;;;3.20;;
20340;SDS011;10328;50.042;8.238;2022-08-11T17:15:59;3.35;;;3.05;;
20340;SDS011;10328;50.042;8.238;2022-08-11T17:18:42;4.07;;;3.33;;
20340;SDS011;10328;50.042;8.238;2022-08-11T17:21:17;4.47;;;2.95;;
20340;SDS011;10328;50.042;8.238;2022-08-11T17:23:50;4.18;;;3.30;;
20340;SDS011;10328;50.042;8.238;2022-08-11T17:28:50;3.40;;;3.10;;
20340;SDS011;10328;50.042;8.238;2022-08-11T17:31:21;7.22;;;3.30;;
20340;SDS011;10328;50.042;8.238;2022-08-11T17:34:08;5.03;;;3.47;;
20340;SDS011;10328;50.042;8.238;2022-08-11T17:36:54;6.93;;;3.70;;
20340;SDS011;10328;50.042;8.238;2022-08-11T17:39:23;3.55;;;3.25;;
20340;SDS011;10328;50.042;8.238;2022-08-11T17:41:54;3.50;;;3.20;;
20340;SDS011;10328;50.042;8.238;2022-08-11T17:44:41;4.75;;;3.20;;
20340;SDS011;10328;50.042;8.238;2022-08-11T17:47:27;6.05;;;3.47;;
20340;SDS011;10328;50.042;8.238;2022-08-11T17:50:13;4.03;;;3.55;;
20340;SDS011;10328;50.042;8.238;2022-08-11T17:52:43;3.30;;;3.00;;
20340;SDS011;10328;50.042;8.238;2022-08-11T17:55:30;5.32;;;3.55;;
20340;SDS011;10328;50.042;8.238;2022-08-11T17:58:18;4.55;;;3.97;;
20340;SDS011;10328;50.042;8.238;2022-08-11T18:01:05;6.82;;;4.00;;
20340;SDS011;10328;50.042;8.238;2022-08-11T18:03:35;4.20;;;3.50;;
20340;SDS011;10328;50.042;8.238;2022-08-11T18:06:18;8.95;;;3.40;;
20340;SDS011;10328;50.042;8.238;2022-08-11T18:08:59;4.90;;;3.42;;
20340;SDS011;10328;50.042;8.238;2022-08-11T18:11:46;3.95;;;3.10;;
20340;SDS011;10328;50.042;8.238;2022-08-11T18:14:37;5.25;;;3.15;;
20340;SDS011;10328;50.042;8.238;2022-08-11T18:17:25;5.50;;;4.05;;
20340;SDS011;10328;50.042;8.238;2022-08-11T18:20:10;4.85;;;3.20;;
20340;SDS011;10328;50.042;8.238;2022-08-11T18:22:56;7.68;;;3.92;;
20340;SDS011;10328;50.042;8.238;2022-08-11T18:25:43;5.35;;;3.47;;
20340;SDS011;10328;50.042;8.238;2022-08-11T18:28:34;3.75;;;3.33;;
20340;SDS011;10328;50.042;8.238;2022-08-11T18:31:26;4.63;;;3.63;;
20340;SDS011;10328;50.042;8.238;2022-08-11T18:34:15;4.03;;;3.63;;
20340;SDS011;10328;50.042;8.238;2022-08-11T18:37:12;6.32;;;3.65;;
20340;SDS011;10328;50.042;8.238;2022-08-11T18:40:06;5.13;;;3.58;;
20340;SDS011;10328;50.042;8.238;2022-08-11T18:42:56;3.67;;;3.33;;
20340;SDS011;10328;50.042;8.238;2022-08-11T18:45:51;4.20;;;3.25;;
20340;SDS011;10328;50.042;8.238;2022-08-11T18:48:45;4.45;;;3.35;;
20340;SDS011;10328;50.042;8.238;2022-08-11T18:51:38;5.40;;;3.60;;
20340;SDS011;10328;50.042;8.238;2022-08-11T18:54:25;5.25;;;3.58;;
20340;SDS011;10328;50.042;8.238;2022-08-11T18:57:17;8.40;;;4.05;;
20340;SDS011;10328;50.042;8.238;2022-08-11T19:00:19;7.72;;;3.72;;
20340;SDS011;10328;50.042;8.238;2022-08-11T19:03:06;6.10;;;3.70;;
20340;SDS011;10328;50.042;8.238;2022-08-11T19:05:53;5.22;;;4.03;;
20340;SDS011;10328;50.042;8.238;2022-08-11T19:09:03;9.50;;;6.28;;
20340;SDS011;10328;50.042;8.238;2022-08-11T19:11:51;8.15;;;4.53;;
20340;SDS011;10328;50.042;8.238;2022-08-11T19:14:38;8.05;;;4.13;;
20340;SDS011;10328;50.042;8.238;2022-08-11T19:17:25;5.15;;;3.97;;
20340;SDS011;10328;50.042;8.238;2022-08-11T19:20:17;9.02;;;4.85;;
20340;SDS011;10328;50.042;8.238;2022-08-11T19:23:04;5.53;;;4.10;;
20340;SDS011;10328;50.042;8.238;2022-08-11T19:25:52;5.88;;;4.32;;
20340;SDS011;10328;50.042;8.238;2022-08-11T19:28:38;6.82;;;3.92;;
20340;SDS011;10328;50.042;8.238;2022-08-11T19:31:25;6.35;;;4.10;;
20340;SDS011;10328;50.042;8.238;2022-08-11T19:34:14;7.38;;;4.47;;
20340;SDS011;10328;50.042;8.238;2022-08-11T19:37:03;5.32;;;3.75;;
20340;SDS011;10328;50.042;8.238;2022-08-11T19:39:51;4.72;;;4.22;;
20340;SDS011;10328;50.042;8.238;2022-08-11T19:42:39;7.22;;;3.85;;
20340;SDS011;10328;50.042;8.238;2022-08-11T19:45:26;5.05;;;3.63;;